sensor_id;sensor_type;location;lat;lon;timestamp;temperature;humidity
22469;DHT22;11401;50.792;4.352;2023-06-26T01:10:27;24.50;54.70
22469;DHT22;11401;50.792;4.352;2023-06-26T01:12:57;24.40;54.90
22469;DHT22;11401;50.792;4.352;2023-06-26T01:15:24;24.40;55.00
22469;DHT22;11401;50.792;4.352;2023-06-26T01:17:51;24.40;55.30
22469;DHT22;11401;50.792;4.352;2023-06-26T01:20:19;24.40;55.60
22469;DHT22;11401;50.792;4.352;2023-06-26T01:23:17;24.30;55.50
22469;DHT22;11401;50.792;4.352;2023-06-26T01:28:44;24.40;55.40
22469;DHT22;11401;50.792;4.352;2023-06-26T01:31:12;24.30;55.50
22469;DHT22;11401;50.792;4.352;2023-06-26T01:33:40;24.20;55.60
22469;DHT22;11401;50.792;4.352;2023-06-26T01:36:08;24.40;55.70
22469;DHT22;11401;50.792;4.352;2023-06-26T01:38:35;24.20;55.80
22469;DHT22;11401;50.792;4.352;2023-06-26T01:41:04;24.10;55.80
22469;DHT22;11401;50.792;4.352;2023-06-26T01:49:32;24.10;56.30
22469;DHT22;11401;50.792;4.352;2023-06-26T01:52:12;24.20;56.20
22469;DHT22;11401;50.792;4.352;2023-06-26T01:57:35;24.20;56.50
22469;DHT22;11401;50.792;4.352;2023-06-26T02:00:03;24.10;56.50
22469;DHT22;11401;50.792;4.352;2023-06-26T02:02:41;24.10;56.70
22469;DHT22;11401;50.792;4.352;2023-06-26T02:05:13;24.10;56.80
22469;DHT22;11401;50.792;4.352;2023-06-26T02:07:40;24.00;56.90
22469;DHT22;11401;50.792;4.352;2023-06-26T02:10:08;24.00;56.90
22469;DHT22;11401;50.792;4.352;2023-06-26T02:12:36;24.00;56.90
22469;DHT22;11401;50.792;4.352;2023-06-26T02:15:05;24.00;57.00
22469;DHT22;11401;50.792;4.352;2023-06-26T02:17:33;24.00;57.10
22469;DHT22;11401;50.792;4.352;2023-06-26T02:20:00;24.00;57.20
22469;DHT22;11401;50.792;4.352;2023-06-26T02:22:27;24.00;57.20
22469;DHT22;11401;50.792;4.352;2023-06-26T02:24:55;23.90;57.40
22469;DHT22;11401;50.792;4.352;2023-06-26T02:27:22;23.80;57.50
22469;DHT22;11401;50.792;4.352;2023-06-26T02:29:49;23.90;57.60
22469;DHT22;11401;50.792;4.352;2023-06-26T02:32:16;23.90;57.50
22469;DHT22;11401;50.792;4.352;2023-06-26T02:34:44;23.90;57.60
22469;DHT22;11401;50.792;4.352;2023-06-26T02:37:11;23.80;57.70
22469;DHT22;11401;50.792;4.352;2023-06-26T02:39:38;23.80;57.90
22469;DHT22;11401;50.792;4.352;2023-06-26T02:42:08;23.90;58.00
22469;DHT22;11401;50.792;4.352;2023-06-26T02:44:35;23.80;58.20
22469;DHT22;11401;50.792;4.352;2023-06-26T02:47:02;23.70;58.50
22469;DHT22;11401;50.792;4.352;2023-06-26T02:49:30;23.70;58.70
22469;DHT22;11401;50.792;4.352;2023-06-26T02:51:57;23.70;58.90
22469;DHT22;11401;50.792;4.352;2023-06-26T02:54:27;23.70;58.90
22469;DHT22;11401;50.792;4.352;2023-06-26T02:57:00;23.70;59.00
22469;DHT22;11401;50.792;4.352;2023-06-26T02:59:29;23.60;59.20
22469;DHT22;11401;50.792;4.352;2023-06-26T03:01:57;23.50;59.40
22469;DHT22;11401;50.792;4.352;2023-06-26T03:04:54;23.50;59.70
22469;DHT22;11401;50.792;4.352;2023-06-26T03:07:21;23.50;59.70
22469;DHT22;11401;50.792;4.352;2023-06-26T03:09:48;23.50;59.80
22469;DHT22;11401;50.792;4.352;2023-06-26T03:12:15;23.40;60.20
22469;DHT22;11401;50.792;4.352;2023-06-26T03:14:42;23.40;60.20
22469;DHT22;11401;50.792;4.352;2023-06-26T03:17:13;23.50;60.10
22469;DHT22;11401;50.792;4.352;2023-06-26T03:19:42;23.50;60.00
22469;DHT22;11401;50.792;4.352;2023-06-26T03:22:17;23.40;60.20
22469;DHT22;11401;50.792;4.352;2023-06-26T03:24:44;23.40;60.30
22469;DHT22;11401;50.792;4.352;2023-06-26T03:27:12;23.30;60.40
22469;DHT22;11401;50.792;4.352;2023-06-26T03:29:43;23.40;60.60
22469;DHT22;11401;50.792;4.352;2023-06-26T03:32:10;23.40;60.50
22469;DHT22;11401;50.792;4.352;2023-06-26T03:34:38;23.30;60.70
22469;DHT22;11401;50.792;4.352;2023-06-26T03:37:05;23.20;60.90
22469;DHT22;11401;50.792;4.352;2023-06-26T03:39:33;23.30;60.70
22469;DHT22;11401;50.792;4.352;2023-06-26T03:42:00;23.20;61.10
22469;DHT22;11401;50.792;4.352;2023-06-26T03:44:28;23.20;61.30
22469;DHT22;11401;50.792;4.352;2023-06-26T03:46:55;23.20;61.10
22469;DHT22;11401;50.792;4.352;2023-06-26T03:49:23;23.20;61.30
22469;DHT22;11401;50.792;4.352;2023-06-26T03:51:51;23.20;61.30
22469;DHT22;11401;50.792;4.352;2023-06-26T03:54:18;23.10;61.20
22469;DHT22;11401;50.792;4.352;2023-06-26T03:56:45;23.10;61.30
22469;DHT22;11401;50.792;4.352;2023-06-26T03:59:12;23.10;61.50
22469;DHT22;11401;50.792;4.352;2023-06-26T04:01:39;23.10;61.50
22469;DHT22;11401;50.792;4.352;2023-06-26T04:04:06;23.10;61.60
22469;DHT22;11401;50.792;4.352;2023-06-26T04:06:33;23.00;61.70
22469;DHT22;11401;50.792;4.352;2023-06-26T04:09:00;23.00;61.80
22469;DHT22;11401;50.792;4.352;2023-06-26T04:11:29;22.90;61.90
22469;DHT22;11401;50.792;4.352;2023-06-26T04:13:56;22.90;62.00
22469;DHT22;11401;50.792;4.352;2023-06-26T04:16:23;22.80;62.10
22469;DHT22;11401;50.792;4.352;2023-06-26T04:18:52;22.80;62.10
22469;DHT22;11401;50.792;4.352;2023-06-26T04:21:19;22.90;62.20
22469;DHT22;11401;50.792;4.352;2023-06-26T04:23:47;22.80;61.90
22469;DHT22;11401;50.792;4.352;2023-06-26T04:26:15;22.80;61.90
22469;DHT22;11401;50.792;4.352;2023-06-26T04:28:42;22.80;61.80
22469;DHT22;11401;50.792;4.352;2023-06-26T04:31:09;22.80;62.50
22469;DHT22;11401;50.792;4.352;2023-06-26T04:33:37;22.80;61.50
22469;DHT22;11401;50.792;4.352;2023-06-26T04:36:08;22.70;61.50
22469;DHT22;11401;50.792;4.352;2023-06-26T04:38:35;22.70;61.70
22469;DHT22;11401;50.792;4.352;2023-06-26T04:41:02;22.70;61.60
22469;DHT22;11401;50.792;4.352;2023-06-26T04:43:29;22.70;61.70
22469;DHT22;11401;50.792;4.352;2023-06-26T04:45:57;22.70;61.50
22469;DHT22;11401;50.792;4.352;2023-06-26T04:48:24;22.60;61.70
22469;DHT22;11401;50.792;4.352;2023-06-26T04:50:51;22.60;61.50
22469;DHT22;11401;50.792;4.352;2023-06-26T04:53:21;22.50;61.50
22469;DHT22;11401;50.792;4.352;2023-06-26T04:55:53;22.50;61.80
22469;DHT22;11401;50.792;4.352;2023-06-26T04:58:20;22.40;61.60
22469;DHT22;11401;50.792;4.352;2023-06-26T05:00:48;22.50;61.50
22469;DHT22;11401;50.792;4.352;2023-06-26T05:03:17;22.50;61.20
22469;DHT22;11401;50.792;4.352;2023-06-26T05:05:44;22.50;61.20
22469;DHT22;11401;50.792;4.352;2023-06-26T05:08:38;22.50;61.20
22469;DHT22;11401;50.792;4.352;2023-06-26T05:11:05;22.50;60.90
22469;DHT22;11401;50.792;4.352;2023-06-26T05:13:32;22.40;61.20
22469;DHT22;11401;50.792;4.352;2023-06-26T05:15:59;22.40;61.40
22469;DHT22;11401;50.792;4.352;2023-06-26T05:18:26;22.30;61.00
22469;DHT22;11401;50.792;4.352;2023-06-26T05:20:53;22.20;61.40
22469;DHT22;11401;50.792;4.352;2023-06-26T05:23:20;22.30;61.40
22469;DHT22;11401;50.792;4.352;2023-06-26T05:25:48;22.40;61.10
22469;DHT22;11401;50.792;4.352;2023-06-26T05:28:17;22.50;59.90
22469;DHT22;11401;50.792;4.352;2023-06-26T05:30:44;22.40;60.00
22469;DHT22;11401;50.792;4.352;2023-06-26T05:33:12;22.50;60.60
22469;DHT22;11401;50.792;4.352;2023-06-26T05:35:41;22.70;61.10
22469;DHT22;11401;50.792;4.352;2023-06-26T05:38:09;22.80;60.10
22469;DHT22;11401;50.792;4.352;2023-06-26T05:40:37;23.00;60.00
22469;DHT22;11401;50.792;4.352;2023-06-26T05:43:04;23.20;59.60
22469;DHT22;11401;50.792;4.352;2023-06-26T05:45:31;23.20;59.50
22469;DHT22;11401;50.792;4.352;2023-06-26T05:47:59;23.20;58.90
22469;DHT22;11401;50.792;4.352;2023-06-26T05:50:27;23.40;60.30
22469;DHT22;11401;50.792;4.352;2023-06-26T05:52:55;23.40;58.90
22469;DHT22;11401;50.792;4.352;2023-06-26T05:55:22;23.50;58.20
22469;DHT22;11401;50.792;4.352;2023-06-26T05:57:51;23.50;58.30
22469;DHT22;11401;50.792;4.352;2023-06-26T06:00:18;23.40;59.00
22469;DHT22;11401;50.792;4.352;2023-06-26T06:02:45;23.40;57.90
22469;DHT22;11401;50.792;4.352;2023-06-26T06:05:12;23.40;58.10
22469;DHT22;11401;50.792;4.352;2023-06-26T06:07:39;23.40;57.20
22469;DHT22;11401;50.792;4.352;2023-06-26T06:10:06;23.50;57.80
22469;DHT22;11401;50.792;4.352;2023-06-26T06:12:34;23.50;56.60
22469;DHT22;11401;50.792;4.352;2023-06-26T06:15:01;23.60;58.10
22469;DHT22;11401;50.792;4.352;2023-06-26T06:17:28;23.70;58.10
